createdAt,value
2023-02-11T00:03:57.441Z,1.99
2023-02-11T00:10:00.930Z,2.01
2023-02-11T00:16:04.544Z,2.03
2023-02-11T00:22:10.835Z,2.03
2023-02-11T00:28:14.244Z,2.03
2023-02-11T00:34:17.787Z,2.04
2023-02-11T00:40:21.208Z,2.04
2023-02-11T00:46:24.985Z,2.06
2023-02-11T00:52:28.444Z,2.08
2023-02-11T00:58:32.105Z,2.10
2023-02-11T01:04:35.622Z,2.12
2023-02-11T01:10:35.119Z,2.13
2023-02-11T01:16:38.553Z,2.15
2023-02-11T01:22:40.646Z,2.18
2023-02-11T01:28:38.053Z,2.22
2023-02-11T01:34:41.448Z,2.26
2023-02-11T01:40:44.996Z,2.31
2023-02-11T01:46:39.827Z,2.34
2023-02-11T01:52:43.284Z,2.37
2023-02-11T01:58:39.808Z,2.41
2023-02-11T02:04:43.209Z,2.44
2023-02-11T02:10:46.744Z,2.50
2023-02-11T02:16:52.816Z,2.56
2023-02-11T02:23:01.922Z,2.60
2023-02-11T02:29:12.846Z,2.64
2023-02-11T02:35:31.310Z,2.66
2023-02-11T02:41:37.678Z,2.67
2023-02-11T02:47:39.579Z,2.67
2023-02-11T02:53:42.950Z,2.66
2023-02-11T02:59:52.030Z,2.68
2023-02-11T03:05:58.535Z,2.69
2023-02-11T03:12:02.001Z,2.70
2023-02-11T03:18:05.411Z,2.71
2023-02-11T03:24:17.682Z,2.72
2023-02-11T03:30:36.615Z,2.73
2023-02-11T03:36:43.056Z,2.73
2023-02-11T03:42:46.541Z,2.73
2023-02-11T03:48:50.081Z,2.73
2023-02-11T03:54:53.590Z,2.74
2023-02-11T04:00:56.288Z,2.76
2023-02-11T04:06:58.527Z,2.78
2023-02-11T04:13:01.893Z,2.80
2023-02-11T04:19:05.365Z,2.82
2023-02-11T04:25:08.755Z,2.88
2023-02-11T04:31:12.347Z,2.90
2023-02-11T04:37:15.722Z,2.93
2023-02-11T04:43:19.388Z,2.94
2023-02-11T04:49:22.774Z,2.94
2023-02-11T04:55:26.715Z,2.95
2023-02-11T05:01:30.103Z,2.94
2023-02-11T05:07:23.379Z,2.93
2023-02-11T05:13:25.386Z,2.94
2023-02-11T05:19:29.275Z,2.93
2023-02-11T05:25:21.538Z,2.95
2023-02-11T05:31:25.092Z,2.95
2023-02-11T05:37:21.135Z,2.95
2023-02-11T05:43:24.677Z,2.95
2023-02-11T05:49:28.089Z,2.95
2023-02-11T05:55:30.211Z,2.95
2023-02-11T06:01:33.625Z,2.97
2023-02-11T06:07:37.026Z,3.00
2023-02-11T06:13:39.263Z,3.03
2023-02-11T06:19:37.997Z,3.06
2023-02-11T06:25:41.584Z,3.10
2023-02-11T06:31:45.216Z,3.12
2023-02-11T06:37:48.827Z,3.15
2023-02-11T06:43:52.295Z,3.16
2023-02-11T06:49:55.806Z,3.19
2023-02-11T06:55:59.248Z,3.23
2023-02-11T07:01:55.975Z,3.29
2023-02-11T07:07:59.575Z,3.34
2023-02-11T07:14:03.181Z,3.42
2023-02-11T07:20:06.811Z,3.50
2023-02-11T07:26:00.238Z,3.58
2023-02-11T07:32:06.856Z,3.67
2023-02-11T07:38:10.736Z,3.76
2023-02-11T07:44:12.796Z,3.85
2023-02-11T07:50:16.191Z,3.93
2023-02-11T07:56:19.620Z,4.01
2023-02-11T08:02:23.210Z,4.09
2023-02-11T08:08:26.674Z,4.16
2023-02-11T08:14:28.559Z,4.22
2023-02-11T08:20:31.957Z,4.30
2023-02-11T08:26:35.662Z,4.36
2023-02-11T08:32:39.174Z,4.39
2023-02-11T08:38:42.580Z,4.38
2023-02-11T08:44:46.182Z,4.37
2023-02-11T08:50:49.647Z,4.36
2023-02-11T08:56:45.850Z,4.33
2023-02-11T09:02:49.241Z,4.31
2023-02-11T09:08:52.867Z,4.33
2023-02-11T09:14:56.421Z,4.45
2023-02-11T09:20:59.855Z,4.63
2023-02-11T09:27:06.019Z,4.83
2023-02-11T09:33:09.706Z,4.83
2023-02-11T09:39:13.121Z,4.97
2023-02-11T09:45:19.454Z,5.05
2023-02-11T09:51:28.930Z,5.15
2023-02-11T09:57:32.516Z,5.16
2023-02-11T10:04:00.659Z,5.18
2023-02-11T10:10:19.701Z,5.23
2023-02-11T10:16:26.440Z,5.17
2023-02-11T10:22:47.802Z,4.99
2023-02-11T10:28:54.173Z,4.88
2023-02-11T10:35:03.492Z,4.85
2023-02-11T10:41:07.004Z,4.86
2023-02-11T10:47:13.417Z,4.88
2023-02-11T10:53:25.928Z,4.90
2023-02-11T10:59:26.057Z,4.93
2023-02-11T11:05:38.378Z,4.97
2023-02-11T11:11:44.919Z,5.01
2023-02-11T11:17:48.976Z,5.04
2023-02-11T11:23:52.379Z,5.04
2023-02-11T11:29:55.937Z,5.05
2023-02-11T11:36:02.409Z,5.07
2023-02-11T11:42:21.434Z,5.09
2023-02-11T11:48:40.052Z,5.13
2023-02-11T11:54:49.470Z,5.17
2023-02-11T12:00:55.683Z,5.23
2023-02-11T12:06:59.221Z,5.27
2023-02-11T12:13:24.165Z,5.32
2023-02-11T12:20:01.148Z,5.40
2023-02-11T12:26:20.004Z,5.50
2023-02-11T12:32:32.648Z,5.57
2023-02-11T12:38:14.226Z,5.63
2023-02-11T12:44:29.230Z,5.66
2023-02-11T12:50:32.876Z,5.69
2023-02-11T12:56:36.449Z,5.73
2023-02-11T13:09:11.870Z,5.80
2023-02-11T13:15:07.438Z,5.83
2023-02-11T13:21:13.577Z,5.82
2023-02-11T13:27:26.134Z,5.83
2023-02-11T13:33:34.793Z,5.85
2023-02-11T13:39:41.199Z,5.88
2023-02-11T13:45:45.303Z,5.89
2023-02-11T13:51:57.444Z,5.89
2023-02-11T13:58:07.796Z,5.90
2023-02-11T14:04:09.727Z,5.91
2023-02-11T14:10:14.667Z,5.92
2023-02-11T14:16:31.610Z,5.91
2023-02-11T14:22:43.994Z,5.92
2023-02-11T14:28:48.651Z,5.93
2023-02-11T14:34:51.646Z,5.92
2023-02-11T14:40:53.712Z,5.91
2023-02-11T14:46:58.154Z,5.91
2023-02-11T14:52:52.956Z,5.91
2023-02-11T14:58:34.363Z,5.92
2023-02-11T15:04:01.439Z,5.91
2023-02-11T15:09:39.116Z,5.90
2023-02-11T15:15:32.451Z,5.90
2023-02-11T15:20:51.227Z,5.89
2023-02-11T15:26:46.392Z,5.89
2023-02-11T15:32:50.212Z,5.88
2023-02-11T15:38:43.139Z,5.88
2023-02-11T15:44:43.835Z,5.86
2023-02-11T15:50:34.080Z,5.87
2023-02-11T15:56:44.735Z,5.88
2023-02-11T16:02:25.532Z,5.89
2023-02-11T16:08:35.618Z,5.90
2023-02-11T16:14:39.493Z,5.89
2023-02-11T16:20:44.298Z,5.91
2023-02-11T16:26:43.892Z,5.92
2023-02-11T16:32:40.753Z,5.92
2023-02-11T16:38:35.770Z,5.93
2023-02-11T16:44:17.770Z,5.93
2023-02-11T16:50:21.405Z,5.96
2023-02-11T16:56:07.347Z,5.99
2023-02-11T17:02:11.826Z,6.02
2023-02-11T17:07:33.615Z,6.03
2023-02-11T17:13:37.164Z,6.03
2023-02-11T17:19:23.640Z,6.03
2023-02-11T17:25:16.895Z,6.03
2023-02-11T17:31:21.524Z,6.03
2023-02-11T17:37:29.688Z,6.06
2023-02-11T17:43:33.157Z,6.06
2023-02-11T17:49:23.739Z,6.06
2023-02-11T17:55:27.910Z,6.08
2023-02-11T18:01:33.457Z,6.07
2023-02-11T18:07:37.274Z,6.06
2023-02-11T18:13:40.676Z,6.07
2023-02-11T18:19:30.491Z,6.07
2023-02-11T18:25:17.382Z,6.10
2023-02-11T18:31:04.300Z,6.10
2023-02-11T18:36:37.247Z,6.09
2023-02-11T18:42:09.845Z,6.08
2023-02-11T18:48:06.219Z,6.09
2023-02-11T18:54:09.401Z,6.10
2023-02-11T19:00:04.005Z,6.09
2023-02-11T19:06:06.695Z,6.10
2023-02-11T19:11:50.045Z,6.10
2023-02-11T19:17:26.336Z,6.11
2023-02-11T19:23:31.605Z,6.09
2023-02-11T19:28:55.859Z,6.08
2023-02-11T19:34:42.938Z,6.06
2023-02-11T19:40:24.136Z,6.03
2023-02-11T19:46:17.428Z,6.01
2023-02-11T19:51:43.633Z,5.97
2023-02-11T19:57:02.679Z,5.95
2023-02-11T20:03:07.312Z,5.92
2023-02-11T20:08:20.094Z,5.89
2023-02-11T20:14:05.980Z,5.89
2023-02-11T20:19:24.760Z,5.89
2023-02-11T20:25:11.878Z,5.88
2023-02-11T20:30:42.550Z,5.89
2023-02-11T20:35:48.517Z,5.87
2023-02-11T20:41:15.718Z,5.84
2023-02-11T20:46:45.791Z,5.83
2023-02-11T20:52:32.192Z,5.82
2023-02-11T20:58:21.100Z,5.82
2023-02-11T21:03:35.296Z,5.83
2023-02-11T21:08:51.285Z,5.83
2023-02-11T21:13:53.872Z,5.82
2023-02-11T21:18:56.898Z,5.79
2023-02-11T21:24:16.730Z,5.78
2023-02-11T21:29:36.696Z,5.77
2023-02-11T21:35:15.350Z,5.78
2023-02-11T21:40:27.247Z,5.78
2023-02-11T21:46:31.943Z,5.78
2023-02-11T21:52:36.311Z,5.79
2023-02-11T21:58:23.918Z,5.78
2023-02-11T22:04:27.340Z,5.78
2023-02-11T22:10:21.630Z,5.77
2023-02-11T22:16:25.410Z,5.76
2023-02-11T22:22:27.704Z,5.76
2023-02-11T22:28:31.204Z,5.75
2023-02-11T22:34:25.557Z,5.75
2023-02-11T22:40:29.214Z,5.75
2023-02-11T22:46:32.630Z,5.75
2023-02-11T22:52:36.148Z,5.74
2023-02-11T22:58:39.558Z,5.74
2023-02-11T23:04:43.063Z,5.73
2023-02-11T23:10:46.676Z,5.73
2023-02-11T23:16:41.800Z,5.72
2023-02-11T23:22:45.312Z,5.70
2023-02-11T23:28:48.751Z,5.70
2023-02-11T23:34:43.565Z,5.71
2023-02-11T23:40:41.836Z,5.69
2023-02-11T23:46:45.261Z,5.68
2023-02-11T23:52:48.711Z,5.65
2023-02-11T23:58:51.266Z,5.62
